sensor_id;sensor_type;location;lat;lon;timestamp;P1;durP1;ratioP1;P2;durP2;ratioP2
2029;SDS011;1020;48.854;8.830;2023-02-22T00:01:14;7.90;;;6.00;;
2029;SDS011;1020;48.854;8.830;2023-02-22T00:03:52;6.90;;;6.10;;
2029;SDS011;1020;48.854;8.830;2023-02-22T00:06:20;7.27;;;6.20;;
2029;SDS011;1020;48.854;8.830;2023-02-22T00:08:49;5.97;;;5.40;;
2029;SDS011;1020;48.854;8.830;2023-02-22T00:11:18;6.20;;;5.53;;
2029;SDS011;1020;48.854;8.830;2023-02-22T00:13:45;6.10;;;5.50;;
2029;SDS011;1020;48.854;8.830;2023-02-22T00:16:15;7.00;;;6.07;;
2029;SDS011;1020;48.854;8.830;2023-02-22T00:18:43;8.00;;;6.10;;
2029;SDS011;1020;48.854;8.830;2023-02-22T00:21:10;6.10;;;5.50;;
2029;SDS011;1020;48.854;8.830;2023-02-22T00:23:39;6.90;;;6.20;;
2029;SDS011;1020;48.854;8.830;2023-02-22T00:26:10;5.80;;;5.20;;
2029;SDS011;1020;48.854;8.830;2023-02-22T00:28:39;6.83;;;6.10;;
2029;SDS011;1020;48.854;8.830;2023-02-22T00:31:06;6.30;;;5.50;;
2029;SDS011;1020;48.854;8.830;2023-02-22T00:33:33;11.97;;;6.43;;
2029;SDS011;1020;48.854;8.830;2023-02-22T00:36:00;7.00;;;6.07;;
2029;SDS011;1020;48.854;8.830;2023-02-22T00:38:27;9.20;;;6.70;;
2029;SDS011;1020;48.854;8.830;2023-02-22T00:40:54;7.00;;;6.40;;
2029;SDS011;1020;48.854;8.830;2023-02-22T00:43:21;7.63;;;6.93;;
2029;SDS011;1020;48.854;8.830;2023-02-22T00:45:50;11.20;;;7.03;;
2029;SDS011;1020;48.854;8.830;2023-02-22T00:48:18;10.17;;;6.60;;
2029;SDS011;1020;48.854;8.830;2023-02-22T00:50:46;7.63;;;6.83;;
2029;SDS011;1020;48.854;8.830;2023-02-22T00:53:13;8.53;;;6.90;;
2029;SDS011;1020;48.854;8.830;2023-02-22T00:55:40;9.10;;;7.23;;
2029;SDS011;1020;48.854;8.830;2023-02-22T00:58:07;10.20;;;6.83;;
2029;SDS011;1020;48.854;8.830;2023-02-22T01:00:35;10.07;;;8.17;;
2029;SDS011;1020;48.854;8.830;2023-02-22T01:03:05;9.83;;;7.53;;
2029;SDS011;1020;48.854;8.830;2023-02-22T01:05:33;9.60;;;8.20;;
2029;SDS011;1020;48.854;8.830;2023-02-22T01:08:00;9.47;;;8.47;;
2029;SDS011;1020;48.854;8.830;2023-02-22T01:10:28;10.50;;;9.43;;
2029;SDS011;1020;48.854;8.830;2023-02-22T01:12:56;9.50;;;8.50;;
2029;SDS011;1020;48.854;8.830;2023-02-22T01:15:25;9.93;;;8.93;;
2029;SDS011;1020;48.854;8.830;2023-02-22T01:17:54;12.93;;;9.67;;
2029;SDS011;1020;48.854;8.830;2023-02-22T01:20:25;10.17;;;8.83;;
2029;SDS011;1020;48.854;8.830;2023-02-22T01:22:53;9.00;;;8.03;;
2029;SDS011;1020;48.854;8.830;2023-02-22T01:25:22;9.13;;;8.10;;
2029;SDS011;1020;48.854;8.830;2023-02-22T01:27:51;8.90;;;6.60;;
2029;SDS011;1020;48.854;8.830;2023-02-22T01:30:19;9.13;;;8.03;;
2029;SDS011;1020;48.854;8.830;2023-02-22T01:32:47;9.10;;;7.67;;
2029;SDS011;1020;48.854;8.830;2023-02-22T01:35:16;7.90;;;7.10;;
2029;SDS011;1020;48.854;8.830;2023-02-22T01:37:45;9.07;;;8.13;;
2029;SDS011;1020;48.854;8.830;2023-02-22T01:40:14;9.27;;;8.37;;
2029;SDS011;1020;48.854;8.830;2023-02-22T01:42:45;8.73;;;7.93;;
2029;SDS011;1020;48.854;8.830;2023-02-22T01:48:08;8.13;;;7.27;;
2029;SDS011;1020;48.854;8.830;2023-02-22T01:50:40;10.53;;;8.03;;
2029;SDS011;1020;48.854;8.830;2023-02-22T01:53:12;10.70;;;7.43;;
2029;SDS011;1020;48.854;8.830;2023-02-22T01:55:41;7.40;;;6.70;;
2029;SDS011;1020;48.854;8.830;2023-02-22T01:58:09;11.63;;;6.87;;
2029;SDS011;1020;48.854;8.830;2023-02-22T02:00:37;8.30;;;7.57;;
2029;SDS011;1020;48.854;8.830;2023-02-22T02:03:06;9.27;;;6.30;;
2029;SDS011;1020;48.854;8.830;2023-02-22T02:05:37;6.80;;;6.13;;
2029;SDS011;1020;48.854;8.830;2023-02-22T02:08:04;6.57;;;5.97;;
2029;SDS011;1020;48.854;8.830;2023-02-22T02:10:40;7.50;;;6.80;;
2029;SDS011;1020;48.854;8.830;2023-02-22T02:13:07;7.80;;;6.80;;
2029;SDS011;1020;48.854;8.830;2023-02-22T02:15:34;8.17;;;6.37;;
2029;SDS011;1020;48.854;8.830;2023-02-22T02:18:01;8.47;;;6.70;;
2029;SDS011;1020;48.854;8.830;2023-02-22T02:20:31;8.23;;;6.77;;
2029;SDS011;1020;48.854;8.830;2023-02-22T02:23:07;9.40;;;7.83;;
2029;SDS011;1020;48.854;8.830;2023-02-22T02:25:56;8.57;;;6.70;;
2029;SDS011;1020;48.854;8.830;2023-02-22T02:28:42;6.67;;;6.07;;
2029;SDS011;1020;48.854;8.830;2023-02-22T02:34:22;7.37;;;6.60;;
2029;SDS011;1020;48.854;8.830;2023-02-22T02:36:57;7.20;;;6.53;;
2029;SDS011;1020;48.854;8.830;2023-02-22T02:39:29;7.00;;;6.30;;
2029;SDS011;1020;48.854;8.830;2023-02-22T02:42:02;9.37;;;6.50;;
2029;SDS011;1020;48.854;8.830;2023-02-22T02:44:35;5.90;;;5.20;;
2029;SDS011;1020;48.854;8.830;2023-02-22T02:47:08;6.97;;;5.80;;
2029;SDS011;1020;48.854;8.830;2023-02-22T02:49:39;8.23;;;5.53;;
2029;SDS011;1020;48.854;8.830;2023-02-22T02:52:10;6.53;;;5.87;;
2029;SDS011;1020;48.854;8.830;2023-02-22T02:54:38;5.87;;;5.27;;
2029;SDS011;1020;48.854;8.830;2023-02-22T02:57:05;6.23;;;5.10;;
2029;SDS011;1020;48.854;8.830;2023-02-22T02:59:34;9.10;;;5.97;;
2029;SDS011;1020;48.854;8.830;2023-02-22T03:02:07;7.07;;;5.37;;
2029;SDS011;1020;48.854;8.830;2023-02-22T03:04:51;6.20;;;5.23;;
2029;SDS011;1020;48.854;8.830;2023-02-22T03:07:30;8.50;;;5.83;;
2029;SDS011;1020;48.854;8.830;2023-02-22T03:10:13;5.93;;;5.33;;
2029;SDS011;1020;48.854;8.830;2023-02-22T03:12:51;5.70;;;5.20;;
2029;SDS011;1020;48.854;8.830;2023-02-22T03:15:30;8.20;;;5.60;;
2029;SDS011;1020;48.854;8.830;2023-02-22T03:18:06;6.57;;;5.50;;
2029;SDS011;1020;48.854;8.830;2023-02-22T03:20:39;4.83;;;4.37;;
2029;SDS011;1020;48.854;8.830;2023-02-22T03:23:11;7.90;;;5.53;;
2029;SDS011;1020;48.854;8.830;2023-02-22T03:25:45;7.40;;;5.70;;
2029;SDS011;1020;48.854;8.830;2023-02-22T03:28:16;5.27;;;4.87;;
2029;SDS011;1020;48.854;8.830;2023-02-22T03:30:45;6.47;;;5.87;;
2029;SDS011;1020;48.854;8.830;2023-02-22T03:33:18;5.67;;;5.10;;
2029;SDS011;1020;48.854;8.830;2023-02-22T03:35:53;7.00;;;5.77;;
2029;SDS011;1020;48.854;8.830;2023-02-22T03:38:24;7.00;;;6.07;;
2029;SDS011;1020;48.854;8.830;2023-02-22T03:40:55;5.87;;;5.27;;
2029;SDS011;1020;48.854;8.830;2023-02-22T03:43:28;8.13;;;5.60;;
2029;SDS011;1020;48.854;8.830;2023-02-22T03:45:59;7.10;;;5.40;;
2029;SDS011;1020;48.854;8.830;2023-02-22T03:48:31;6.50;;;5.77;;
2029;SDS011;1020;48.854;8.830;2023-02-22T03:51:04;5.90;;;5.30;;
2029;SDS011;1020;48.854;8.830;2023-02-22T03:53:31;7.10;;;5.63;;
2029;SDS011;1020;48.854;8.830;2023-02-22T03:56:01;8.53;;;6.33;;
2029;SDS011;1020;48.854;8.830;2023-02-22T03:58:31;6.20;;;5.70;;
2029;SDS011;1020;48.854;8.830;2023-02-22T04:01:00;7.20;;;6.50;;
2029;SDS011;1020;48.854;8.830;2023-02-22T04:03:27;7.70;;;6.97;;
2029;SDS011;1020;48.854;8.830;2023-02-22T04:05:55;8.50;;;7.33;;
2029;SDS011;1020;48.854;8.830;2023-02-22T04:08:22;8.40;;;6.93;;
2029;SDS011;1020;48.854;8.830;2023-02-22T04:10:49;9.30;;;7.07;;
2029;SDS011;1020;48.854;8.830;2023-02-22T04:13:15;7.57;;;6.87;;
2029;SDS011;1020;48.854;8.830;2023-02-22T04:15:43;9.00;;;6.67;;
2029;SDS011;1020;48.854;8.830;2023-02-22T04:18:09;6.60;;;6.00;;
2029;SDS011;1020;48.854;8.830;2023-02-22T04:20:36;7.50;;;6.70;;
2029;SDS011;1020;48.854;8.830;2023-02-22T04:23:04;7.70;;;6.90;;
2029;SDS011;1020;48.854;8.830;2023-02-22T04:25:31;6.50;;;5.80;;
2029;SDS011;1020;48.854;8.830;2023-02-22T04:27:58;9.03;;;6.80;;
2029;SDS011;1020;48.854;8.830;2023-02-22T04:30:24;8.00;;;6.70;;
2029;SDS011;1020;48.854;8.830;2023-02-22T04:32:52;8.40;;;7.40;;
2029;SDS011;1020;48.854;8.830;2023-02-22T04:35:19;7.20;;;6.33;;
2029;SDS011;1020;48.854;8.830;2023-02-22T04:37:45;8.37;;;7.10;;
2029;SDS011;1020;48.854;8.830;2023-02-22T04:40:14;7.73;;;7.00;;
2029;SDS011;1020;48.854;8.830;2023-02-22T04:42:42;8.67;;;6.10;;
2029;SDS011;1020;48.854;8.830;2023-02-22T04:45:09;6.93;;;6.33;;
2029;SDS011;1020;48.854;8.830;2023-02-22T04:47:36;7.70;;;6.73;;
2029;SDS011;1020;48.854;8.830;2023-02-22T04:50:03;8.00;;;7.20;;
2029;SDS011;1020;48.854;8.830;2023-02-22T04:52:31;8.83;;;6.10;;
2029;SDS011;1020;48.854;8.830;2023-02-22T04:54:57;9.03;;;6.87;;
2029;SDS011;1020;48.854;8.830;2023-02-22T04:57:26;7.77;;;7.00;;
2029;SDS011;1020;48.854;8.830;2023-02-22T04:59:52;8.07;;;6.60;;
2029;SDS011;1020;48.854;8.830;2023-02-22T05:02:19;8.00;;;6.97;;
2029;SDS011;1020;48.854;8.830;2023-02-22T05:04:46;7.30;;;6.67;;
2029;SDS011;1020;48.854;8.830;2023-02-22T05:07:13;8.30;;;7.23;;
2029;SDS011;1020;48.854;8.830;2023-02-22T05:09:39;9.43;;;8.40;;
2029;SDS011;1020;48.854;8.830;2023-02-22T05:12:06;9.20;;;6.87;;
2029;SDS011;1020;48.854;8.830;2023-02-22T05:14:35;9.50;;;8.10;;
2029;SDS011;1020;48.854;8.830;2023-02-22T05:17:01;9.77;;;8.80;;
2029;SDS011;1020;48.854;8.830;2023-02-22T05:19:28;10.23;;;8.47;;
2029;SDS011;1020;48.854;8.830;2023-02-22T05:21:55;11.70;;;8.00;;
2029;SDS011;1020;48.854;8.830;2023-02-22T05:24:22;12.93;;;6.83;;
2029;SDS011;1020;48.854;8.830;2023-02-22T05:26:49;11.90;;;8.20;;
2029;SDS011;1020;48.854;8.830;2023-02-22T05:29:17;9.80;;;8.47;;
2029;SDS011;1020;48.854;8.830;2023-02-22T05:31:45;10.80;;;9.77;;
2029;SDS011;1020;48.854;8.830;2023-02-22T05:34:12;11.77;;;10.63;;
2029;SDS011;1020;48.854;8.830;2023-02-22T05:36:39;13.50;;;11.70;;
2029;SDS011;1020;48.854;8.830;2023-02-22T05:39:05;12.90;;;10.63;;
2029;SDS011;1020;48.854;8.830;2023-02-22T05:41:32;11.43;;;10.27;;
2029;SDS011;1020;48.854;8.830;2023-02-22T05:43:59;11.63;;;10.37;;
2029;SDS011;1020;48.854;8.830;2023-02-22T05:46:27;16.43;;;12.00;;
2029;SDS011;1020;48.854;8.830;2023-02-22T05:48:55;10.30;;;9.20;;
2029;SDS011;1020;48.854;8.830;2023-02-22T05:51:21;9.73;;;8.73;;
2029;SDS011;1020;48.854;8.830;2023-02-22T05:53:48;13.90;;;8.43;;
2029;SDS011;1020;48.854;8.830;2023-02-22T05:56:19;14.60;;;9.17;;
2029;SDS011;1020;48.854;8.830;2023-02-22T05:58:47;10.27;;;7.80;;
2029;SDS011;1020;48.854;8.830;2023-02-22T06:01:13;8.20;;;7.40;;
2029;SDS011;1020;48.854;8.830;2023-02-22T06:03:40;9.13;;;7.47;;
2029;SDS011;1020;48.854;8.830;2023-02-22T06:06:08;9.80;;;7.43;;
2029;SDS011;1020;48.854;8.830;2023-02-22T06:08:36;9.63;;;8.07;;
2029;SDS011;1020;48.854;8.830;2023-02-22T06:11:03;9.10;;;8.20;;
2029;SDS011;1020;48.854;8.830;2023-02-22T06:13:29;11.20;;;9.77;;
2029;SDS011;1020;48.854;8.830;2023-02-22T06:15:57;11.70;;;7.70;;
2029;SDS011;1020;48.854;8.830;2023-02-22T06:18:24;10.77;;;9.10;;
2029;SDS011;1020;48.854;8.830;2023-02-22T06:20:54;10.40;;;7.93;;
2029;SDS011;1020;48.854;8.830;2023-02-22T06:23:22;9.73;;;7.70;;
2029;SDS011;1020;48.854;8.830;2023-02-22T06:25:49;9.00;;;8.10;;
2029;SDS011;1020;48.854;8.830;2023-02-22T06:28:16;8.40;;;7.60;;
2029;SDS011;1020;48.854;8.830;2023-02-22T06:30:42;9.10;;;8.33;;
2029;SDS011;1020;48.854;8.830;2023-02-22T06:33:09;9.43;;;8.47;;
2029;SDS011;1020;48.854;8.830;2023-02-22T06:35:36;11.00;;;8.63;;
2029;SDS011;1020;48.854;8.830;2023-02-22T06:38:03;8.83;;;7.93;;
2029;SDS011;1020;48.854;8.830;2023-02-22T06:40:31;8.10;;;6.90;;
2029;SDS011;1020;48.854;8.830;2023-02-22T06:42:58;9.63;;;7.10;;
2029;SDS011;1020;48.854;8.830;2023-02-22T06:45:25;10.60;;;8.00;;
2029;SDS011;1020;48.854;8.830;2023-02-22T06:47:52;8.93;;;7.30;;
2029;SDS011;1020;48.854;8.830;2023-02-22T06:50:21;9.53;;;6.87;;
2029;SDS011;1020;48.854;8.830;2023-02-22T06:52:49;8.63;;;7.33;;
2029;SDS011;1020;48.854;8.830;2023-02-22T06:55:17;7.60;;;6.63;;
2029;SDS011;1020;48.854;8.830;2023-02-22T06:57:46;8.27;;;6.87;;
2029;SDS011;1020;48.854;8.830;2023-02-22T07:00:14;8.60;;;6.97;;
2029;SDS011;1020;48.854;8.830;2023-02-22T07:02:42;8.73;;;5.93;;
2029;SDS011;1020;48.854;8.830;2023-02-22T07:05:09;6.83;;;6.27;;
2029;SDS011;1020;48.854;8.830;2023-02-22T07:07:37;11.80;;;10.70;;
2029;SDS011;1020;48.854;8.830;2023-02-22T07:10:04;8.67;;;7.83;;
2029;SDS011;1020;48.854;8.830;2023-02-22T07:12:32;8.83;;;7.50;;
2029;SDS011;1020;48.854;8.830;2023-02-22T07:15:00;7.80;;;7.00;;
2029;SDS011;1020;48.854;8.830;2023-02-22T07:17:27;7.77;;;6.97;;
2029;SDS011;1020;48.854;8.830;2023-02-22T07:19:54;7.83;;;6.77;;
2029;SDS011;1020;48.854;8.830;2023-02-22T07:22:20;6.97;;;6.27;;
2029;SDS011;1020;48.854;8.830;2023-02-22T07:24:47;6.20;;;5.70;;
2029;SDS011;1020;48.854;8.830;2023-02-22T07:27:14;6.50;;;5.90;;
2029;SDS011;1020;48.854;8.830;2023-02-22T07:29:41;6.93;;;6.33;;
2029;SDS011;1020;48.854;8.830;2023-02-22T07:32:10;7.43;;;6.00;;
2029;SDS011;1020;48.854;8.830;2023-02-22T07:34:36;6.90;;;6.30;;
2029;SDS011;1020;48.854;8.830;2023-02-22T07:37:03;9.77;;;8.77;;
2029;SDS011;1020;48.854;8.830;2023-02-22T07:39:30;7.33;;;6.63;;
2029;SDS011;1020;48.854;8.830;2023-02-22T07:41:58;7.87;;;6.70;;
2029;SDS011;1020;48.854;8.830;2023-02-22T07:44:25;6.33;;;5.63;;
2029;SDS011;1020;48.854;8.830;2023-02-22T07:46:51;6.37;;;5.77;;
2029;SDS011;1020;48.854;8.830;2023-02-22T07:49:19;23.40;;;15.40;;
2029;SDS011;1020;48.854;8.830;2023-02-22T07:51:46;25.27;;;18.17;;
2029;SDS011;1020;48.854;8.830;2023-02-22T07:54:13;22.70;;;18.40;;
2029;SDS011;1020;48.854;8.830;2023-02-22T07:56:43;12.40;;;10.47;;
2029;SDS011;1020;48.854;8.830;2023-02-22T07:59:10;17.00;;;13.17;;
2029;SDS011;1020;48.854;8.830;2023-02-22T08:01:37;8.67;;;7.77;;
2029;SDS011;1020;48.854;8.830;2023-02-22T08:04:04;8.00;;;6.67;;
2029;SDS011;1020;48.854;8.830;2023-02-22T08:06:32;9.83;;;6.80;;
2029;SDS011;1020;48.854;8.830;2023-02-22T08:08:59;7.93;;;6.30;;
2029;SDS011;1020;48.854;8.830;2023-02-22T08:11:26;5.50;;;5.03;;
2029;SDS011;1020;48.854;8.830;2023-02-22T08:14:01;5.80;;;4.77;;
2029;SDS011;1020;48.854;8.830;2023-02-22T08:16:27;4.73;;;4.13;;
2029;SDS011;1020;48.854;8.830;2023-02-22T08:18:54;4.40;;;4.00;;
2029;SDS011;1020;48.854;8.830;2023-02-22T08:21:21;5.87;;;4.80;;
2029;SDS011;1020;48.854;8.830;2023-02-22T08:23:51;6.67;;;4.13;;
2029;SDS011;1020;48.854;8.830;2023-02-22T08:26:20;5.67;;;4.20;;
2029;SDS011;1020;48.854;8.830;2023-02-22T08:28:47;7.60;;;5.50;;
2029;SDS011;1020;48.854;8.830;2023-02-22T08:31:14;5.80;;;5.27;;
2029;SDS011;1020;48.854;8.830;2023-02-22T08:33:41;6.20;;;5.60;;
2029;SDS011;1020;48.854;8.830;2023-02-22T08:36:08;5.40;;;5.00;;
2029;SDS011;1020;48.854;8.830;2023-02-22T08:38:34;5.43;;;4.93;;
2029;SDS011;1020;48.854;8.830;2023-02-22T08:41:03;6.07;;;5.57;;
2029;SDS011;1020;48.854;8.830;2023-02-22T08:43:30;5.83;;;5.33;;
2029;SDS011;1020;48.854;8.830;2023-02-22T08:45:57;5.27;;;4.77;;
2029;SDS011;1020;48.854;8.830;2023-02-22T08:48:24;5.30;;;4.80;;
2029;SDS011;1020;48.854;8.830;2023-02-22T08:50:51;5.57;;;5.17;;
2029;SDS011;1020;48.854;8.830;2023-02-22T08:53:18;6.80;;;5.23;;
2029;SDS011;1020;48.854;8.830;2023-02-22T08:55:45;7.70;;;6.20;;
2029;SDS011;1020;48.854;8.830;2023-02-22T08:58:15;5.60;;;4.97;;
2029;SDS011;1020;48.854;8.830;2023-02-22T09:00:41;5.80;;;5.30;;
2029;SDS011;1020;48.854;8.830;2023-02-22T09:03:09;6.13;;;4.40;;
2029;SDS011;1020;48.854;8.830;2023-02-22T09:05:38;4.70;;;4.30;;
2029;SDS011;1020;48.854;8.830;2023-02-22T09:08:05;5.43;;;4.10;;
2029;SDS011;1020;48.854;8.830;2023-02-22T09:10:33;5.53;;;4.50;;
2029;SDS011;1020;48.854;8.830;2023-02-22T09:13:01;4.47;;;4.07;;
2029;SDS011;1020;48.854;8.830;2023-02-22T09:15:29;5.13;;;4.10;;
2029;SDS011;1020;48.854;8.830;2023-02-22T09:17:58;4.77;;;4.37;;
2029;SDS011;1020;48.854;8.830;2023-02-22T09:20:25;4.60;;;4.20;;
2029;SDS011;1020;48.854;8.830;2023-02-22T09:22:52;4.07;;;3.77;;
2029;SDS011;1020;48.854;8.830;2023-02-22T09:25:20;3.93;;;3.50;;
2029;SDS011;1020;48.854;8.830;2023-02-22T09:27:47;5.03;;;4.63;;
2029;SDS011;1020;48.854;8.830;2023-02-22T09:30:16;4.30;;;3.90;;
2029;SDS011;1020;48.854;8.830;2023-02-22T09:32:48;4.20;;;3.83;;
2029;SDS011;1020;48.854;8.830;2023-02-22T09:35:16;4.93;;;4.53;;
2029;SDS011;1020;48.854;8.830;2023-02-22T09:37:43;4.57;;;4.10;;
2029;SDS011;1020;48.854;8.830;2023-02-22T09:40:15;4.70;;;4.13;;
2029;SDS011;1020;48.854;8.830;2023-02-22T09:42:51;5.13;;;4.63;;
2029;SDS011;1020;48.854;8.830;2023-02-22T09:45:30;5.30;;;4.80;;
2029;SDS011;1020;48.854;8.830;2023-02-22T09:48:04;5.77;;;4.70;;
2029;SDS011;1020;48.854;8.830;2023-02-22T09:50:33;5.10;;;4.70;;
2029;SDS011;1020;48.854;8.830;2023-02-22T09:53:03;7.37;;;6.67;;
2029;SDS011;1020;48.854;8.830;2023-02-22T09:55:33;8.43;;;7.63;;
2029;SDS011;1020;48.854;8.830;2023-02-22T09:58:05;7.07;;;6.47;;
2029;SDS011;1020;48.854;8.830;2023-02-22T10:00:37;7.10;;;6.50;;
2029;SDS011;1020;48.854;8.830;2023-02-22T10:03:14;7.73;;;6.67;;
2029;SDS011;1020;48.854;8.830;2023-02-22T10:05:49;11.87;;;6.70;;
2029;SDS011;1020;48.854;8.830;2023-02-22T10:08:21;9.27;;;6.93;;
2029;SDS011;1020;48.854;8.830;2023-02-22T10:10:54;7.10;;;6.50;;
2029;SDS011;1020;48.854;8.830;2023-02-22T10:13:33;8.13;;;7.43;;
2029;SDS011;1020;48.854;8.830;2023-02-22T10:16:11;7.37;;;6.73;;
2029;SDS011;1020;48.854;8.830;2023-02-22T10:21:41;6.07;;;5.47;;
2029;SDS011;1020;48.854;8.830;2023-02-22T10:24:34;7.80;;;7.00;;
2029;SDS011;1020;48.854;8.830;2023-02-22T10:27:12;7.17;;;6.60;;
2029;SDS011;1020;48.854;8.830;2023-02-22T10:29:45;7.17;;;6.47;;
2029;SDS011;1020;48.854;8.830;2023-02-22T10:32:17;6.47;;;5.97;;
2029;SDS011;1020;48.854;8.830;2023-02-22T10:34:50;9.20;;;7.20;;
2029;SDS011;1020;48.854;8.830;2023-02-22T10:37:21;7.47;;;6.77;;
2029;SDS011;1020;48.854;8.830;2023-02-22T10:39:50;7.93;;;7.33;;
2029;SDS011;1020;48.854;8.830;2023-02-22T10:42:24;7.80;;;7.00;;
2029;SDS011;1020;48.854;8.830;2023-02-22T10:44:52;9.20;;;7.40;;
2029;SDS011;1020;48.854;8.830;2023-02-22T10:47:19;8.77;;;7.10;;
2029;SDS011;1020;48.854;8.830;2023-02-22T10:49:47;8.37;;;7.57;;
2029;SDS011;1020;48.854;8.830;2023-02-22T10:52:18;7.27;;;6.70;;
2029;SDS011;1020;48.854;8.830;2023-02-22T10:54:49;7.07;;;6.43;;
2029;SDS011;1020;48.854;8.830;2023-02-22T10:57:19;8.13;;;7.43;;
2029;SDS011;1020;48.854;8.830;2023-02-22T10:59:47;8.40;;;7.60;;
2029;SDS011;1020;48.854;8.830;2023-02-22T11:02:17;9.40;;;8.13;;
2029;SDS011;1020;48.854;8.830;2023-02-22T11:04:46;7.43;;;6.73;;
2029;SDS011;1020;48.854;8.830;2023-02-22T11:07:20;12.73;;;7.57;;
2029;SDS011;1020;48.854;8.830;2023-02-22T11:09:49;7.37;;;6.67;;
2029;SDS011;1020;48.854;8.830;2023-02-22T11:12:19;8.23;;;7.43;;
2029;SDS011;1020;48.854;8.830;2023-02-22T11:14:51;8.03;;;7.17;;
2029;SDS011;1020;48.854;8.830;2023-02-22T11:17:21;7.60;;;6.90;;
2029;SDS011;1020;48.854;8.830;2023-02-22T11:19:54;7.77;;;6.93;;
2029;SDS011;1020;48.854;8.830;2023-02-22T11:22:24;8.20;;;7.50;;
2029;SDS011;1020;48.854;8.830;2023-02-22T11:24:55;7.30;;;6.70;;
2029;SDS011;1020;48.854;8.830;2023-02-22T11:27:26;7.17;;;6.67;;
2029;SDS011;1020;48.854;8.830;2023-02-22T11:29:57;7.90;;;7.10;;
2029;SDS011;1020;48.854;8.830;2023-02-22T11:32:35;7.23;;;6.53;;
2029;SDS011;1020;48.854;8.830;2023-02-22T11:35:17;7.23;;;6.63;;
2029;SDS011;1020;48.854;8.830;2023-02-22T11:37:46;7.60;;;6.90;;
2029;SDS011;1020;48.854;8.830;2023-02-22T11:40:14;8.37;;;7.57;;
2029;SDS011;1020;48.854;8.830;2023-02-22T11:42:46;8.30;;;7.50;;
2029;SDS011;1020;48.854;8.830;2023-02-22T11:45:14;9.13;;;8.20;;
2029;SDS011;1020;48.854;8.830;2023-02-22T11:47:48;7.53;;;6.83;;
2029;SDS011;1020;48.854;8.830;2023-02-22T11:50:22;7.90;;;7.20;;
2029;SDS011;1020;48.854;8.830;2023-02-22T11:52:56;7.40;;;6.80;;
2029;SDS011;1020;48.854;8.830;2023-02-22T11:55:33;7.80;;;7.07;;
2029;SDS011;1020;48.854;8.830;2023-02-22T11:58:05;7.47;;;6.77;;
2029;SDS011;1020;48.854;8.830;2023-02-22T12:00:49;7.97;;;7.37;;
2029;SDS011;1020;48.854;8.830;2023-02-22T12:03:42;7.50;;;6.90;;
2029;SDS011;1020;48.854;8.830;2023-02-22T12:06:19;7.67;;;7.00;;
2029;SDS011;1020;48.854;8.830;2023-02-22T12:08:59;8.43;;;7.20;;
2029;SDS011;1020;48.854;8.830;2023-02-22T12:11:34;8.10;;;7.30;;
2029;SDS011;1020;48.854;8.830;2023-02-22T12:14:11;8.10;;;7.40;;
2029;SDS011;1020;48.854;8.830;2023-02-22T12:17:01;9.13;;;7.30;;
2029;SDS011;1020;48.854;8.830;2023-02-22T12:19:38;7.23;;;6.63;;
2029;SDS011;1020;48.854;8.830;2023-02-22T12:22:09;7.10;;;6.50;;
2029;SDS011;1020;48.854;8.830;2023-02-22T12:24:43;7.13;;;6.57;;
2029;SDS011;1020;48.854;8.830;2023-02-22T12:27:14;6.90;;;6.30;;
2029;SDS011;1020;48.854;8.830;2023-02-22T12:29:45;7.13;;;6.57;;
2029;SDS011;1020;48.854;8.830;2023-02-22T12:32:16;7.10;;;6.50;;
2029;SDS011;1020;48.854;8.830;2023-02-22T12:34:54;8.03;;;7.23;;
2029;SDS011;1020;48.854;8.830;2023-02-22T12:37:25;5.80;;;5.30;;
2029;SDS011;1020;48.854;8.830;2023-02-22T12:39:57;7.37;;;6.67;;
2029;SDS011;1020;48.854;8.830;2023-02-22T12:42:33;7.50;;;6.80;;
2029;SDS011;1020;48.854;8.830;2023-02-22T12:45:12;9.70;;;7.23;;
2029;SDS011;1020;48.854;8.830;2023-02-22T12:47:48;7.20;;;6.50;;
2029;SDS011;1020;48.854;8.830;2023-02-22T12:50:21;6.47;;;5.83;;
2029;SDS011;1020;48.854;8.830;2023-02-22T12:52:51;6.13;;;5.60;;
2029;SDS011;1020;48.854;8.830;2023-02-22T12:55:24;7.07;;;6.47;;
2029;SDS011;1020;48.854;8.830;2023-02-22T12:57:54;6.47;;;5.60;;
2029;SDS011;1020;48.854;8.830;2023-02-22T13:00:27;6.27;;;5.77;;
2029;SDS011;1020;48.854;8.830;2023-02-22T13:03:00;6.90;;;6.23;;
2029;SDS011;1020;48.854;8.830;2023-02-22T13:05:32;9.83;;;7.17;;
2029;SDS011;1020;48.854;8.830;2023-02-22T13:08:14;6.00;;;5.47;;
2029;SDS011;1020;48.854;8.830;2023-02-22T13:10:59;7.40;;;5.90;;
2029;SDS011;1020;48.854;8.830;2023-02-22T13:13:37;7.33;;;6.63;;
2029;SDS011;1020;48.854;8.830;2023-02-22T13:16:14;8.00;;;7.30;;
2029;SDS011;1020;48.854;8.830;2023-02-22T13:18:55;6.30;;;5.80;;
2029;SDS011;1020;48.854;8.830;2023-02-22T13:21:28;6.73;;;6.13;;
2029;SDS011;1020;48.854;8.830;2023-02-22T13:24:14;7.67;;;6.90;;
2029;SDS011;1020;48.854;8.830;2023-02-22T13:26:49;7.00;;;6.33;;
2029;SDS011;1020;48.854;8.830;2023-02-22T13:29:19;6.60;;;5.97;;
2029;SDS011;1020;48.854;8.830;2023-02-22T13:32:04;10.73;;;7.80;;
2029;SDS011;1020;48.854;8.830;2023-02-22T13:34:46;8.50;;;7.70;;
2029;SDS011;1020;48.854;8.830;2023-02-22T13:37:39;8.07;;;7.37;;
2029;SDS011;1020;48.854;8.830;2023-02-22T13:40:36;8.50;;;7.30;;
2029;SDS011;1020;48.854;8.830;2023-02-22T13:43:29;8.10;;;7.27;;
2029;SDS011;1020;48.854;8.830;2023-02-22T13:46:24;9.00;;;8.10;;
2029;SDS011;1020;48.854;8.830;2023-02-22T13:49:06;8.47;;;7.13;;
2029;SDS011;1020;48.854;8.830;2023-02-22T13:51:48;8.03;;;7.17;;
2029;SDS011;1020;48.854;8.830;2023-02-22T13:54:19;7.83;;;7.10;;
2029;SDS011;1020;48.854;8.830;2023-02-22T13:56:49;6.93;;;6.43;;
2029;SDS011;1020;48.854;8.830;2023-02-22T13:59:27;8.23;;;7.43;;
2029;SDS011;1020;48.854;8.830;2023-02-22T14:01:56;7.50;;;6.70;;
2029;SDS011;1020;48.854;8.830;2023-02-22T14:13:15;8.53;;;7.80;;
2029;SDS011;1020;48.854;8.830;2023-02-22T14:18:49;7.80;;;7.00;;
2029;SDS011;1020;48.854;8.830;2023-02-22T14:21:30;9.03;;;7.83;;
2029;SDS011;1020;48.854;8.830;2023-02-22T14:24:05;7.57;;;6.87;;
2029;SDS011;1020;48.854;8.830;2023-02-22T14:26:35;6.90;;;6.20;;
2029;SDS011;1020;48.854;8.830;2023-02-22T14:29:13;7.63;;;6.73;;
2029;SDS011;1020;48.854;8.830;2023-02-22T14:31:58;8.10;;;7.50;;
2029;SDS011;1020;48.854;8.830;2023-02-22T14:34:38;9.53;;;7.50;;
2029;SDS011;1020;48.854;8.830;2023-02-22T14:37:10;8.13;;;6.80;;
2029;SDS011;1020;48.854;8.830;2023-02-22T14:39:40;8.17;;;7.10;;
2029;SDS011;1020;48.854;8.830;2023-02-22T14:42:11;7.60;;;6.23;;
2029;SDS011;1020;48.854;8.830;2023-02-22T14:44:42;7.77;;;6.47;;
2029;SDS011;1020;48.854;8.830;2023-02-22T14:47:18;6.50;;;5.90;;
2029;SDS011;1020;48.854;8.830;2023-02-22T14:49:50;6.37;;;5.73;;
2029;SDS011;1020;48.854;8.830;2023-02-22T14:52:22;7.83;;;7.10;;
2029;SDS011;1020;48.854;8.830;2023-02-22T14:54:55;8.27;;;6.80;;
2029;SDS011;1020;48.854;8.830;2023-02-22T14:57:42;8.23;;;7.00;;
2029;SDS011;1020;48.854;8.830;2023-02-22T15:00:18;10.77;;;7.30;;
2029;SDS011;1020;48.854;8.830;2023-02-22T15:02:56;8.80;;;7.90;;
2029;SDS011;1020;48.854;8.830;2023-02-22T15:05:25;7.90;;;7.10;;
2029;SDS011;1020;48.854;8.830;2023-02-22T15:07:55;10.00;;;8.20;;
2029;SDS011;1020;48.854;8.830;2023-02-22T15:10:25;8.00;;;7.20;;
2029;SDS011;1020;48.854;8.830;2023-02-22T15:12:54;10.20;;;7.83;;
2029;SDS011;1020;48.854;8.830;2023-02-22T15:15:33;9.07;;;8.07;;
2029;SDS011;1020;48.854;8.830;2023-02-22T15:18:02;8.90;;;7.93;;
2029;SDS011;1020;48.854;8.830;2023-02-22T15:20:35;9.27;;;8.30;;
2029;SDS011;1020;48.854;8.830;2023-02-22T15:23:03;9.77;;;8.60;;
2029;SDS011;1020;48.854;8.830;2023-02-22T15:25:30;9.40;;;8.40;;
2029;SDS011;1020;48.854;8.830;2023-02-22T15:28:02;11.60;;;9.77;;
2029;SDS011;1020;48.854;8.830;2023-02-22T15:30:33;11.60;;;9.57;;
2029;SDS011;1020;48.854;8.830;2023-02-22T15:33:12;9.33;;;8.37;;
2029;SDS011;1020;48.854;8.830;2023-02-22T15:35:41;10.57;;;8.83;;
2029;SDS011;1020;48.854;8.830;2023-02-22T15:38:15;11.57;;;10.43;;
2029;SDS011;1020;48.854;8.830;2023-02-22T15:40:45;10.90;;;9.80;;
2029;SDS011;1020;48.854;8.830;2023-02-22T15:43:16;9.80;;;8.80;;
2029;SDS011;1020;48.854;8.830;2023-02-22T15:45:48;10.63;;;9.53;;
2029;SDS011;1020;48.854;8.830;2023-02-22T15:48:17;10.40;;;9.40;;
2029;SDS011;1020;48.854;8.830;2023-02-22T15:51:00;11.73;;;10.03;;
2029;SDS011;1020;48.854;8.830;2023-02-22T15:53:33;10.67;;;9.63;;
2029;SDS011;1020;48.854;8.830;2023-02-22T15:56:05;14.00;;;9.60;;